Weather observations for the past three days for
Minden Airport
Imperial (Metric)
Date Time (cdt) Wind (mph) Vis. (mi.) Weather Sky Cond. Temperature (ºF) Relative Humidity Wind Chill (°F) Heat Index (°F) Pressure Precipitation (in)
Air Dwpt 6 hour altimeter (in) sea level (mb) 1 hr 3 hr 6 hr
Max. Min.
08 13:35 Calm 10.00 Fair CLR 73.4 51.8 47% 29.9 0.0
08 13:15 E 6 10.00 Fair CLR 71.6 50 47% 29.91 0.0
08 12:55 E 7 10.00 Fair CLR 73.4 51.8 47% 29.92 0.0
08 12:35 SE 6 10.00 Fair CLR 73.4 51.8 47% 29.93 0.0
08 12:15 E 3 10.00 Fair CLR 71.6 51.8 50% 29.94 0.0
08 11:55 SE 3 G 9 10.00 Fair CLR 71.6 50 47% 29.97 0.0
08 11:35 SE 7 10.00 Fair CLR 69.8 51.8 53% 29.98 0.0
08 11:15 SE 8 G 18 10.00 Fair CLR 68 50 53% 29.97 0.0
08 10:55 E 6 10.00 Fair CLR 68 51.8 56% 30 0.0
08 10:35 SE 3 10.00 Fair CLR 66.2 50 56% 30.01 0.0
08 10:15 Calm 10.00 Fair CLR 66.2 51.8 60% 30.01 0.0
08 09:55 Calm 10.00 Fair CLR 64.4 51.8 64% 30.01 0.0
08 09:35 Calm 10.00 Fair CLR 62.6 50 64% 30.01 0.0
08 09:15 Calm 10.00 Fair CLR 62.6 51.8 68% 30.01 0.0
08 08:55 Calm 10.00 Fair CLR 60.8 51.8 72% 29.99 0.0
08 08:35 Calm 10.00 Fair CLR 60.8 51.8 72% 29.97 0.0
08 08:15 Calm 10.00 Fair CLR 60.8 51.8 72% 29.97 0.0
08 07:55 Calm 10.00 Fair CLR 60.8 50 68% 29.98 0.0 0.01
08 07:35 Calm 10.00 Thunderstorm in Vicinity CLR 59 50 72% 29.99 0.0 0.01
08 07:15 E 3 10.00 Partly Cloudy SCT100 57.2 51.8 82% 30 0.0
08 06:55 Calm 10.00 Light Rain SCT070 BKN100 57.2 51.8 82% 30.02 0.0
08 06:35 Calm 10.00 Mostly Cloudy BKN110 59 51.8 77% 30.01 0.0
08 06:15 E 7 10.00 Overcast SCT060 SCT090 OVC110 59 51.8 77% 29.99 0.0
08 05:55 Calm 10.00 Mostly Cloudy BKN110 59 51.8 77% 29.99 0.0
08 05:35 E 3 10.00 Mostly Cloudy BKN110 59 51.8 77% 29.97 0.0
08 05:15 SE 3 10.00 Partly Cloudy SCT120 59 51.8 77% 29.98 0.0
08 04:55 E 3 10.00 Partly Cloudy SCT120 59 51.8 77% 29.99 0.0
08 04:35 E 3 10.00 Partly Cloudy SCT120 59 51.8 77% 29.99 0.0
08 04:15 E 3 10.00 Fair CLR 59 51.8 77% 29.99 0.0
08 03:55 Calm 10.00 Fair CLR 59 50 72% 29.98 0.0
08 03:35 Calm 10.00 Fair CLR 59 51.8 77% 29.98 0.0
08 03:15 E 3 10.00 Fair CLR 59 53.6 82% 29.99 0.0
08 02:55 Calm 10.00 Fair CLR 59 53.6 82% 30 0.0
08 02:35 Calm 10.00 Fair CLR 59 53.6 82% 29.99 0.0
08 02:15 Calm 10.00 Fair CLR 59 53.6 82% 29.99 0.0
08 01:55 Calm 10.00 Fair CLR 59 53.6 82% 30 0.0 0.01
08 01:35 Calm 10.00 Fair CLR 59 53.6 82% 30 0.0 0.01
08 01:15 Calm 10.00 Fair CLR 59 53.6 82% 30 0.0
08 00:55 Calm 10.00 Fair CLR 59 53.6 82% 30 0.0
08 00:35 Calm 10.00 Fair CLR 59 53.6 82% 30 0.0
08 00:15 Calm 10.00 Fair CLR 59 53.6 82% 30 0.0
07 23:55 Calm 10.00 Fair CLR 59 53.6 82% 30 0.0
07 23:35 Calm 10.00 Fair CLR 59 53.6 82% 30 0.0
07 23:15 Calm 3.00 Fair with Haze CLR 60.8 53.6 77% 30 0.0
07 22:55 Calm 10.00 Fair CLR 60.8 55.4 83% 30.01 0.0
07 22:35 Calm 10.00 Fair CLR 60.8 55.4 83% 30.02 0.0
07 22:15 Calm 10.00 Fair CLR 60.8 55.4 83% 30.02 0.0
07 21:55 Calm 10.00 Fair CLR 60.8 55.4 83% 30 0.0
07 21:35 Calm 10.00 Fair CLR 60.8 55.4 83% 30 0.0
07 21:15 Calm 10.00 Fair CLR 60.8 55.4 83% 30 0.0
07 20:55 Calm 10.00 Fair CLR 62.6 55.4 77% 30 0.0
07 20:35 Calm 10.00 Fair CLR 62.6 55.4 77% 29.99 0.0
07 20:15 Calm 10.00 Fair CLR 62.6 55.4 77% 29.99 0.0
07 19:55 Calm 10.00 Fair CLR 64.4 53.6 68% 29.99 0.0
07 19:35 Calm 10.00 Fair CLR 64.4 55.4 73% 29.99 0.0
07 19:15 Calm 10.00 Fair CLR 66.2 53.6 64% 29.99 0.0
07 18:55 Calm 10.00 Fair CLR 68 53.6 60% 29.99 0.0
07 18:35 Calm 10.00 Fair CLR 68 51.8 56% 29.98 0.0
07 18:15 Calm 10.00 Fair CLR 68 51.8 56% 29.99 0.0
07 17:55 Calm 10.00 Fair CLR 68 51.8 56% 29.99 0.0
07 17:35 E 5 10.00 Fair CLR 69.8 50 50% 29.99 0.0
07 17:15 E 5 10.00 Fair CLR 69.8 50 50% 29.99 0.0
07 16:55 Calm 10.00 Fair CLR 69.8 50 50% 30 0.0
07 16:35 Calm 10.00 Fair CLR 69.8 50 50% 30 0.0
07 16:15 Calm 10.00 Fair CLR 69.8 50 50% 30 0.0
07 15:55 Calm 10.00 Fair CLR 69.8 48.2 46% 30 0.0
07 15:35 N 6 10.00 Fair CLR 69.8 50 50% 30.01 0.0
07 15:15 Calm 10.00 Fair CLR 69.8 48.2 46% 30.03 0.0
07 14:55 NE 5 10.00 Fair CLR 68 46.4 46% 30.03 0.0 0.01
07 14:35 NE 5 10.00 Fair CLR 68 46.4 46% 30.03 0.0 0.01
07 14:15 N 3 10.00 Fair CLR 68 44.6 43% 30.03 0.0 0.01
07 13:55 NE 7 10.00 Fair CLR 68 44.6 43% 30.04 0.0
07 13:35 N 8 10.00 Fair CLR 68 46.4 46% 30.05 0.0
07 13:15 N 7 10.00 Fair CLR 68 46.4 46% 30.05 0.0
07 12:55 N 6 10.00 Fair CLR 68 44.6 43% 30.06 0.0
07 12:35 NW 7 10.00 Fair CLR 68 46.4 46% 30.07 0.0
07 12:15 N 6 10.00 Fair CLR 64.4 46.4 52% 30.08 0.0
07 11:55 Calm 10.00 Fair CLR 64.4 46.4 52% 30.08 0.0 0.01
07 11:35 Calm 10.00 Fair CLR 64.4 44.6 49% 30.08 0.0
07 11:15 Calm 10.00 Fair CLR 62.6 44.6 52% 30.09 0.0
07 10:55 Calm 10.00 Fair CLR 62.6 44.6 52% 30.08 0.0
07 10:35 Calm 10.00 Fair CLR 60.8 44.6 55% 30.08 0.0
07 10:15 Calm 10.00 Fair CLR 60.8 44.6 55% 30.09 0.0
07 09:55 Calm 10.00 Fair CLR 60.8 46.4 59% 30.1 0.0
07 09:35 Calm 10.00 Fair CLR 59 46.4 63% 30.09 0.0
07 09:15 Calm 10.00 Fair CLR 57.2 46.4 67% 30.07 0.0
07 08:55 Calm 10.00 Fair CLR 55.4 46.4 72% 30.07 0.0
07 08:35 Calm 10.00 Fair CLR 55.4 46.4 72% 30.08 0.0
07 08:15 Calm 10.00 Fair CLR 53.6 46.4 77% 30.08 0.0
07 07:55 Calm 10.00 Fair CLR 53.6 46.4 77% 30.08 0.0 0.01
07 07:35 Calm 10.00 Fair CLR 51.8 46.4 82% 30.07 0.0
07 07:15 Calm 10.00 Fair CLR 51.8 46.4 82% 30.07 0.0
07 06:55 Calm 10.00 Fair CLR 51.8 46.4 82% 30.05 0.0
07 06:35 Calm 10.00 Fair CLR 51.8 46.4 82% 30.02 0.0
07 06:15 Calm 10.00 Fair CLR 51.8 46.4 82% 30.02 0.0
07 05:55 Calm 10.00 Fair CLR 51.8 46.4 82% 30.02 0.0
07 05:35 Calm 10.00 Fair CLR 51.8 46.4 82% 30.02 0.0
07 05:15 Calm 10.00 Fair CLR 51.8 46.4 82% 30.01 0.0
07 04:55 Calm 10.00 Fair CLR 51.8 46.4 82% 30 0.0
07 04:35 Calm 10.00 Partly Cloudy SCT039 51.8 46.4 82% 30 0.0
07 04:15 Calm 10.00 Overcast OVC037 53.6 46.4 77% 30 0.0
07 03:55 Calm 10.00 Overcast BKN035 OVC043 53.6 46.4 77% 30 0.0 0.01
07 03:35 Calm 10.00 Overcast SCT031 OVC043 53.6 46.4 77% 30.01 0.0 0.01
07 03:15 Calm 10.00 Overcast OVC031 53.6 46.4 77% 30.02 0.0 0.01
07 02:55 Calm 10.00 Overcast OVC031 53.6 46.4 77% 30.01 0.0
07 02:35 Calm 10.00 Overcast OVC031 53.6 48.2 82% 30.02 0.0
07 02:15 Calm 10.00 Overcast OVC029 53.6 48.2 82% 30.02 0.0
07 01:55 Calm 10.00 Overcast OVC029 51.8 46.4 82% 30.02 0.0
07 01:35 Calm 10.00 Overcast SCT010 OVC029 53.6 46.4 77% 30.02 0.0
07 01:15 N 3 10.00 Overcast BKN008 OVC027 53.6 48.2 82% 30.03 0.0
07 00:55 N 6 10.00 Overcast BKN008 BKN027 OVC039 53.6 50 88% 30.03 0.0
07 00:35 NW 8 10.00 Overcast BKN010 OVC023 53.6 50 88% 30.02 0.0
07 00:15 N 7 10.00 Overcast BKN010 OVC023 53.6 48.2 82% 30.02 0.0
06 23:55 Calm 10.00 Overcast OVC008 53.6 48.2 82% 30.01 0.0
06 23:35 Calm 10.00 Light Drizzle OVC008 53.6 50 88% 30.01 0.0
06 23:15 N 3 10.00 Rain OVC006 53.6 50 88% 30 0.0
06 22:55 N 6 7.00 Light Rain OVC008 53.6 50 88% 30 0.0
06 22:15 Calm 10.00 Overcast OVC008 53.6 50 88% 29.99 0.0
06 21:55 N 3 10.00 Light Rain OVC008 53.6 50 88% 29.98 0.0 0.01
06 21:35 N 5 10.00 Overcast OVC008 55.4 50 82% 29.98 0.0
06 21:15 NE 3 10.00 Overcast OVC008 55.4 51.8 88% 29.97 0.0
06 20:55 N 5 10.00 Overcast OVC008 55.4 50 82% 29.96 0.0
06 20:35 N 5 10.00 Overcast OVC008 55.4 51.8 88% 29.94 0.0
06 20:15 N 9 10.00 Overcast OVC008 55.4 51.8 88% 29.93 0.0
06 19:55 N 6 10.00 Overcast OVC008 55.4 51.8 88% 29.92 0.0
06 19:35 N 5 10.00 Overcast OVC008 55.4 51.8 88% 29.92 0.0
06 19:15 N 6 10.00 Overcast OVC008 55.4 51.8 88% 29.92 0.0
06 18:55 Calm 10.00 Overcast OVC008 57.2 53.6 88% 29.92 0.0 0.01
06 18:35 Calm 10.00 Overcast OVC008 57.2 53.6 88% 29.91 0.0 0.01
06 17:55 Calm 10.00 Overcast OVC008 57.2 53.6 88% 29.91 0.0
06 17:35 Calm 10.00 Overcast OVC008 57.2 53.6 88% 29.89 0.0
06 17:15 Calm 7.00 Rain OVC008 59 53.6 82% 29.89 0.0
06 16:35 NE 5 10.00 Overcast OVC008 59 53.6 82% 29.89 0.0
06 16:15 Calm 10.00 Overcast OVC008 59 53.6 82% 29.9 0.0
06 15:55 N 3 G 16 10.00 Overcast OVC008 60.8 53.6 77% 29.89 0.0
06 15:35 N 7 10.00 Overcast OVC008 60.8 53.6 77% 29.87 0.0
06 15:15 NE 6 10.00 Overcast OVC008 60.8 55.4 83% 29.88 0.0
06 14:55 N 7 10.00 Overcast OVC006 60.8 55.4 83% 29.88 0.0 0.01
06 14:35 N 10 10.00 Overcast OVC006 60.8 55.4 83% 29.89 0.0 0.01
06 14:15 NE 6 10.00 Overcast OVC006 60.8 55.4 83% 29.9 0.0 0.01
06 13:55 NE 3 10.00 Overcast OVC006 60.8 55.4 83% 29.89 0.0
06 13:35 NE 6 10.00 Overcast OVC004 60.8 57.2 88% 29.92 0.0
06 13:15 N 9 10.00 Overcast OVC004 62.6 59 88% 29.92 0.0
06 12:55 N 7 10.00 Overcast OVC004 60.8 59 94% 29.93 0.0
06 12:35 N 8 10.00 Overcast OVC004 62.6 59 88% 29.94 0.0
06 12:15 N 10 10.00 Light Drizzle OVC004 62.6 59 88% 29.93 0.0
06 11:55 N 7 2.50 Rain BKN004 BKN019 OVC026 64.4 60.8 88% 29.92 0.0 0.01
06 11:35 N 12 7.00 Heavy Rain SCT006 BKN011 OVC026 68 62.6 83% 29.9 0.0 0.01
06 11:15 NW 9 7.00 Overcast SCT008 BKN013 OVC020 71.6 68 88% 29.89 0.0
06 10:55 SW 7 10.00 Overcast OVC018 78.8 69.8 74% 81 29.88 0.0
06 10:35 S 5 10.00 Overcast OVC014 78.8 69.8 74% 81 29.87 0.0
06 10:15 S 5 10.00 Overcast OVC014 77 69.8 79% 79 29.87 0.0
06 09:55 S 5 7.00 Overcast OVC014 77 69.8 79% 79 29.86 0.0 0.01
06 09:35 S 7 10.00 Overcast OVC012 77 69.8 79% 79 29.87 0.0 0.01
06 09:15 S 6 10.00 Overcast OVC012 77 69.8 79% 79 29.86 0.0
06 08:55 S 6 10.00 Overcast OVC012 77 69.8 79% 79 29.86 0.0
06 08:35 Calm 10.00 Overcast OVC012 75.2 69.8 83% 75 29.86 0.0
06 08:15 Calm 10.00 Overcast BKN012 OVC018 73.4 69.8 89% 29.86 0.0
06 07:55 Calm 10.00 Overcast SCT012 BKN025 OVC055 73.4 69.8 89% 29.86 0.0 0.01
06 07:35 Calm 7.00 Overcast SCT016 BKN025 OVC060 73.4 69.8 89% 29.85 0.0
06 06:55 Calm 10.00 Overcast BKN016 BKN022 OVC060 73.4 68 83% 29.83 0.0
06 06:35 Calm 7.00 Overcast BKN014 OVC020 73.4 68 83% 29.83 0.0
06 06:15 Calm 10.00 Overcast OVC014 73.4 68 83% 29.82 0.0
06 05:55 Calm 10.00 Overcast OVC012 73.4 68 83% 29.81 0.0 0.01
06 05:35 Calm 10.00 Overcast OVC012 73.4 68 83% 29.81 0.0 0.01
06 05:15 S 5 10.00 Mostly Cloudy BKN012 BKN022 73.4 68 83% 29.8 0.0
06 04:55 S 6 10.00 Partly Cloudy SCT012 SCT020 73.4 68 83% 29.79 0.0
06 04:35 S 6 G 16 10.00 Overcast BKN012 OVC020 73.4 68 83% 29.79 0.0
06 04:15 S 7 10.00 Overcast OVC014 73.4 68 83% 29.79 0.0
06 03:55 Calm 10.00 Overcast OVC014 73.4 68 83% 29.78 0.0 0.01
06 03:35 S 7 10.00 Overcast OVC014 73.4 68 83% 29.78 0.0 0.01
06 03:15 S 6 10.00 Partly Cloudy SCT016 73.4 68 83% 29.78 0.0
06 02:55 S 9 10.00 Partly Cloudy SCT016 73.4 68 83% 29.76 0.0
06 02:35 S 7 10.00 Mostly Cloudy SCT016 BKN060 73.4 68 83% 29.77 0.0
06 02:15 S 6 10.00 Overcast SCT016 OVC060 75.2 68 78% 76 29.79 0.0
06 01:55 Calm 10.00 Overcast OVC050 75.2 68 78% 76 29.81 0.0 0.01
06 01:35 S 8 10.00 Overcast OVC050 75.2 68 78% 76 29.8 0.0 0.01
06 01:15 S 8 10.00 Overcast SCT015 OVC050 75.2 68 78% 76 29.8 0.0
06 00:55 S 6 10.00 Overcast SCT017 OVC050 75.2 68 78% 76 29.8 0.0
06 00:35 S 7 10.00 Overcast BKN015 OVC050 75.2 68 78% 76 29.8 0.0
06 00:15 Calm 10.00 Overcast SCT015 OVC050 73.4 68 83% 29.79 0.0
05 23:55 S 8 10.00 Mostly Cloudy BKN015 BKN050 73.4 68 83% 29.78 0.0 0.01
05 23:35 S 9 10.00 Overcast OVC015 73.4 68 83% 29.78 0.0 0.01
05 23:15 Calm 10.00 Mostly Cloudy BKN015 75.2 68 78% 76 29.78 0.0
05 22:55 S 9 10.00 Partly Cloudy SCT015 73.4 68 83% 29.78 0.0
05 22:35 S 8 10.00 Fair CLR 75.2 68 78% 76 29.76 0.0
05 22:15 S 7 10.00 Fair CLR 75.2 68 78% 76 29.78 0.0
05 21:55 S 10 10.00 Fair CLR 75.2 68 78% 76 29.77 0.0 0.01
05 21:35 S 7 10.00 Fair CLR 75.2 68 78% 76 29.76 0.0 0.01
05 21:15 S 7 10.00 Fair CLR 77 68 74% 79 29.75 0.0
05 20:55 S 6 10.00 Fair CLR 77 68 74% 79 29.75 0.0
05 20:35 S 7 10.00 Fair CLR 77 68 74% 79 29.74 0.0
05 20:15 S 7 10.00 Partly Cloudy SCT033 SCT050 77 68 74% 79 29.73 0.0
05 19:55 S 9 10.00 Partly Cloudy SCT035 SCT050 77 68 74% 79 29.73 0.0 0.01
05 19:35 S 6 10.00 Partly Cloudy SCT037 SCT050 78.8 68 70% 81 29.72 0.0
05 19:15 S 7 10.00 Partly Cloudy SCT029 SCT038 78.8 68 70% 81 29.72 0.0
05 18:55 S 9 G 16 10.00 Partly Cloudy SCT029 SCT046 80.6 68 66% 83 29.72 0.0 0.01
05 18:35 S 10 10.00 Fair CLR 80.6 68 66% 83 29.72 0.0 0.01
05 18:15 Calm 10.00 Fair CLR 80.6 68 66% 83 29.71 0.0 0.01
05 17:55 S 9 G 16 10.00 Partly Cloudy SCT031 SCT036 80.6 68 66% 83 29.71 0.0
05 17:35 S 9 G 18 10.00 Partly Cloudy SCT031 80.6 68 66% 83 29.72 0.0
05 17:15 Calm 10.00 Partly Cloudy SCT029 82.4 68 62% 85 29.72 0.0
05 16:55 S 10 G 17 10.00 Partly Cloudy SCT029 SCT042 SCT048 80.6 68 66% 83 29.72 0.0 0.01
05 16:35 S 10 0.00 NULL NULL 80.6 68 66% 83 29.73 0.0
05 16:15 S 8 G 21 10.00 Overcast SCT026 BKN033 OVC039 78.8 66.2 65% 81 29.74 0.0
05 15:55 S 12 G 22 10.00 Overcast BKN027 OVC037 80.6 66.2 62% 83 29.74 0.0 0.01
05 15:35 S 10 G 18 10.00 Overcast SCT026 BKN031 OVC042 80.6 66.2 62% 83 29.73 0.0 0.01
05 15:15 S 10 G 21 10.00 Overcast BKN025 BKN033 OVC040 80.6 66.2 62% 83 29.74 0.0 0.01
05 14:55 S 10 G 21 10.00 Overcast BKN025 BKN030 OVC047 80.6 68 66% 83 29.75 0.0
05 14:35 S 10 10.00 Overcast BKN025 BKN031 OVC047 80.6 68 66% 83 29.76 0.0
05 14:15 S 9 G 16 10.00 Overcast BKN023 OVC032 78.8 66.2 65% 81 29.77 0.0
05 13:55 S 8 G 16 10.00 Overcast BKN023 OVC029 78.8 66.2 65% 81 29.77 0.0 0.01
Date Time (cdt) Wind (mph) Vis. (mi.) Weather Sky Cond. Air Dwpt Max. Min. Relative Humidity Wind Chill (°F) Heat Index (°F) altimeter (in) sea level (mb) 1 hr 3 hr 6 hr
6 hour
Temperature (ºF) Pressure Precipitation (in)